Historique des mesures à Cassis (13260), France
Quotidien Résumé Mai 22, 2017 Unités:  Métrique    US   Métrique/US
« Précédent (Jour)
Suivant (Jour) »
Quotidien Hebdomadaire Mensuel Annuel Période au choix
  Maximum: Minimum: Moyenne:
Température: TemperatureC °C 14.6 °C 18.5 °C
Point de rosée: DewpointC °C 6.7 °C 9.4 °C
Humidité: Humidity % 43 % 53 %
Vitesse du vent: 0 km/h 0 km/h 3.1 km/h
Rafales: 0 km/h - -
Vent:- - South
Pression: PressurehPa hPa 1014.4 hPa -
Précipitations: 0.0 mm    
Historical Graphs
 
 
Mesures pour : Mai 22, 2017
Heure Temperature Point de rosée Pression Vent Vitesse du vent Rafales Humidité Pluie (par heure) Conditions
TemperatureC °C DewpointC °C PressurehPa hPa Calm     Humidity % HourlyPrecipMM mm SoftwareType W/m2
00:10 17.1 °C 9.7 °C 1016.5 hPa Calm   3.4 km/h 62 % 0.0 mm open2300-1.11 W/m2
01:10 16.6 °C 8.8 °C 1015.8 hPa Calm     60 % 0.0 mm open2300-1.11 W/m2
02:10 16.1 °C 8.4 °C 1015.8 hPa Calm   2.3 km/h 60 % 0.0 mm open2300-1.11 W/m2
03:10 15.4 °C 8.2 °C 1015.5 hPa Calm     62 % 0.0 mm open2300-1.11 W/m2
04:10 15.1 °C 8.3 °C 1015.1 hPa Calm     64 % 0.0 mm open2300-1.11 W/m2
05:10 14.9 °C 8.1 °C 1014.8 hPa Calm     64 % 0.0 mm open2300-1.11 W/m2
06:10 14.6 °C 7.2 °C 1014.4 hPa NE 3.4 km/h 5.6 km/h 61 % 0.0 mm open2300-1.11 W/m2
07:10 16.6 °C 6.7 °C 1015.1 hPa NW 7.6 km/h 7.6 km/h 52 % 0.0 mm open2300-1.11 W/m2
08:10 19.3 °C 9.2 °C 1015.5 hPa Calm     52 % 0.0 mm open2300-1.11 W/m2
09:10 19.6 °C 10.3 °C 1015.8 hPa ESE 4.2 km/h 6.4 km/h 55 % 0.0 mm open2300-1.11 W/m2
10:10 19.8 °C 11.0 °C 1016.5 hPa SE 1.8 km/h 1.8 km/h 57 % 0.0 mm open2300-1.11 W/m2
11:10 19.6 °C 11.7 °C 1016.5 hPa NNW 2.3 km/h 3.4 km/h 60 % 0.0 mm open2300-1.11 W/m2
12:10 21.4 °C 12.2 °C 1016.8 hPa SSW 7.6 km/h 10.3 km/h 56 % 0.0 mm open2300-1.11 W/m2
13:10 22.0 °C 12.8 °C 1016.5 hPa SE 5.6 km/h 5.6 km/h 56 % 0.0 mm open2300-1.11 W/m2
14:10 22.3 °C 13.3 °C 1016.5 hPa SSE 4.7 km/h 6.4 km/h 57 % 0.0 mm open2300-1.11 W/m2
15:10 22.9 °C 10.6 °C 1015.8 hPa SE 1.8 km/h 1.8 km/h 46 % 0.0 mm open2300-1.11 W/m2
16:10 24.1 °C 11.7 °C 1015.1 hPa SSE 8 km/h 14 km/h 46 % 0.0 mm open2300-1.11 W/m2
17:11 23.8 °C 10.4 °C 1014.8 hPa SE 8 km/h 15.6 km/h 43 % 0.0 mm open2300-1.11 W/m2
18:10 23.2 °C 10.9 °C 1014.4 hPa West 5.1 km/h 5.1 km/h 46 % 0.0 mm open2300-1.11 W/m2
19:10 21.6 °C 11.8 °C 1014.4 hPa SE 3.4 km/h 9.8 km/h 54 % 0.0 mm open2300-1.11 W/m2
20:10 20.5 °C 10.6 °C 1014.4 hPa Calm   2.3 km/h 53 % 0.0 mm open2300-1.11 W/m2
21:10 19.1 °C 8.8 °C 1014.4 hPa WNW 8.9 km/h 15 km/h 51 % 0.0 mm open2300-1.11 W/m2
22:10 18.3 °C 7.1 °C 1014.8 hPa Calm   4.2 km/h 48 % 0.0 mm open2300-1.11 W/m2
23:10 18.1 °C 6.8 °C 1014.8 hPa North 4.2 km/h 14 km/h 48 % 0.0 mm open2300-1.11 W/m2
Observations météo à CASSIS
WU-History script by Weather Underground - 1 mb